nws-alerts: Checking more than four warning/county codes can delay the loading of your pages. You should use a cron job to get the data.
EllijayWeather Station Historical Data
Daily Summary for August 28, 2018 Units:  English    Metric   Both
Daily Weekly Monthly Yearly Custom
  High: Low: Average:
Temperature: 85.8 °F 65.8 °F 75.9 °F
Dew Point: 76.6 °F 64.4 °F 71.3 °F
Humidity: 96% 67% 86%
Wind Speed: 0.9mph 0mph 0mph
Wind Gust: 4mph - -
Wind- - South
Pressure: 30.22 in 30.10 in -
Precipitation: 0 in    
Historical Graphs
 
 
Tabular Data for August 28, 2018
Time Temperature Dew Point Pressure Wind Wind Speed Wind Gust Humidity Rainfall Rate (Hourly) solar
00:03 70.9 °F 69.1 °F 30.17 in Calm     94% 0 in meteobridge W/m2
00:08 70.5 °F 68.7 °F 30.16 in Calm     94% 0 in meteobridge W/m2
00:14 70.5 °F 68.7 °F 30.16 in Calm     94% 0 in meteobridge W/m2
00:19 70.5 °F 68.7 °F 30.16 in Calm     94% 0 in meteobridge W/m2
00:24 70.3 °F 68.5 °F 30.16 in Calm     94% 0 in meteobridge W/m2
00:30 70.2 °F 68.4 °F 30.16 in Calm     94% 0 in meteobridge W/m2
00:35 70.2 °F 68.4 °F 30.16 in Calm     94% 0 in meteobridge W/m2
00:40 70 °F 68.2 °F 30.16 in Calm     94% 0 in meteobridge W/m2
00:45 70 °F 68.2 °F 30.16 in Calm     94% 0 in meteobridge W/m2
00:50 69.8 °F 68 °F 30.16 in Calm     94% 0 in meteobridge W/m2
00:55 69.6 °F 67.8 °F 30.16 in Calm     94% 0 in meteobridge W/m2
01:01 69.6 °F 67.8 °F 30.16 in Calm     94% 0 in meteobridge W/m2
01:06 69.4 °F 67.6 °F 30.16 in Calm     94% 0 in meteobridge W/m2
01:12 69.4 °F 67.6 °F 30.16 in Calm     94% 0 in meteobridge W/m2
01:18 69.4 °F 67.6 °F 30.16 in Calm     94% 0 in meteobridge W/m2
01:23 69.3 °F 67.5 °F 30.16 in Calm     94% 0 in meteobridge W/m2
01:28 69.3 °F 67.5 °F 30.16 in Calm     94% 0 in meteobridge W/m2
01:33 69.3 °F 67.5 °F 30.15 in Calm     94% 0 in meteobridge W/m2
01:39 69.1 °F 67.3 °F 30.15 in Calm     94% 0 in meteobridge W/m2
01:45 69.1 °F 67.3 °F 30.15 in Calm     94% 0 in meteobridge W/m2
01:51 68.9 °F 67.1 °F 30.15 in Calm     94% 0 in meteobridge W/m2
01:56 68.7 °F 66.9 °F 30.15 in Calm     94% 0 in meteobridge W/m2
02:01 68.7 °F 67.3 °F 30.14 in Calm     95% 0 in meteobridge W/m2
02:06 68.5 °F 66.7 °F 30.14 in Calm     94% 0 in meteobridge W/m2
02:11 68.5 °F 66.7 °F 30.14 in Calm     94% 0 in meteobridge W/m2
02:17 68.4 °F 66.6 °F 30.14 in Calm     94% 0 in meteobridge W/m2
02:22 68.4 °F 66.6 °F 30.14 in Calm     94% 0 in meteobridge W/m2
02:27 68.2 °F 66.4 °F 30.14 in Calm     94% 0 in meteobridge W/m2
02:32 68.2 °F 66.4 °F 30.14 in Calm     94% 0 in meteobridge W/m2
02:38 68 °F 66.2 °F 30.14 in Calm     94% 0 in meteobridge W/m2
02:43 67.8 °F 66 °F 30.14 in Calm     94% 0 in meteobridge W/m2
02:49 67.8 °F 66 °F 30.14 in Calm     94% 0 in meteobridge W/m2
02:54 67.6 °F 66.2 °F 30.14 in Calm     95% 0 in meteobridge W/m2
03:00 67.6 °F 66.2 °F 30.14 in Calm     95% 0 in meteobridge W/m2
03:06 67.6 °F 66.2 °F 30.14 in Calm     95% 0 in meteobridge W/m2
03:11 67.6 °F 66.2 °F 30.14 in Calm     95% 0 in meteobridge W/m2
03:16 67.6 °F 66.2 °F 30.14 in Calm     95% 0 in meteobridge W/m2
03:22 67.5 °F 66 °F 30.14 in Calm     95% 0 in meteobridge W/m2
03:27 67.5 °F 66 °F 30.14 in Calm     95% 0 in meteobridge W/m2
03:33 67.5 °F 66 °F 30.14 in Calm     95% 0 in meteobridge W/m2
03:38 67.5 °F 66 °F 30.14 in Calm     95% 0 in meteobridge W/m2
03:43 67.3 °F 65.8 °F 30.14 in Calm     95% 0 in meteobridge W/m2
03:48 67.3 °F 65.8 °F 30.14 in Calm     95% 0 in meteobridge W/m2
03:53 67.3 °F 65.8 °F 30.14 in Calm     95% 0 in meteobridge W/m2
03:58 67.1 °F 65.7 °F 30.14 in Calm     95% 0 in meteobridge W/m2
04:03 67.1 °F 65.7 °F 30.14 in Calm     95% 0 in meteobridge W/m2
04:08 66.9 °F 65.5 °F 30.14 in Calm     95% 0 in meteobridge W/m2
04:14 66.9 °F 65.5 °F 30.14 in Calm     95% 0 in meteobridge W/m2
04:19 66.9 °F 65.5 °F 30.14 in Calm     95% 0 in meteobridge W/m2
04:24 66.9 °F 65.5 °F 30.14 in Calm     95% 0 in meteobridge W/m2
04:29 66.9 °F 65.5 °F 30.15 in Calm     95% 0 in meteobridge W/m2
04:35 66.9 °F 65.5 °F 30.15 in Calm     95% 0 in meteobridge W/m2
04:40 66.9 °F 65.5 °F 30.14 in Calm     95% 0 in meteobridge W/m2
04:45 66.9 °F 65.5 °F 30.15 in Calm     95% 0 in meteobridge W/m2
04:51 66.9 °F 65.5 °F 30.15 in Calm     95% 0 in meteobridge W/m2
07:48 65.8 °F 64.4 °F 30.21 in Calm     95% 0 in meteobridge W/m2
07:54 66 °F 64.6 °F 30.21 in Calm     95% 0 in meteobridge W/m2
07:59 66 °F 64.6 °F 30.21 in Calm     95% 0 in meteobridge W/m2
08:04 66.4 °F 64.9 °F 30.21 in Calm     95% 0 in meteobridge W/m2
08:09 66.4 °F 64.9 °F 30.21 in Calm     95% 0 in meteobridge W/m2
08:14 66.4 °F 64.9 °F 30.21 in Calm     95% 0 in meteobridge W/m2
08:19 66.6 °F 65.1 °F 30.22 in Calm     95% 0 in meteobridge W/m2
08:24 66.7 °F 65.3 °F 30.22 in Calm     95% 0 in meteobridge W/m2
08:29 66.9 °F 65.7 °F 30.22 in Calm     96% 0 in meteobridge W/m2
08:34 67.3 °F 65.8 °F 30.22 in Calm     95% 0 in meteobridge W/m2
08:39 67.5 °F 66 °F 30.22 in Calm     95% 0 in meteobridge W/m2
08:44 67.6 °F 66.4 °F 30.22 in Calm     96% 0 in meteobridge W/m2
08:49 67.8 °F 66.6 °F 30.22 in Calm     96% 0 in meteobridge W/m2
08:54 68.2 °F 66.9 °F 30.22 in Calm     96% 0 in meteobridge W/m2
08:59 68.4 °F 67.1 °F 30.22 in Calm     96% 0 in meteobridge W/m2
09:04 68.7 °F 67.3 °F 30.22 in Calm     95% 0 in meteobridge W/m2
09:09 69.1 °F 67.8 °F 30.22 in Calm     96% 0 in meteobridge W/m2
09:14 69.3 °F 68 °F 30.22 in Calm     96% 0 in meteobridge W/m2
09:19 69.6 °F 68.4 °F 30.22 in Calm     96% 0 in meteobridge W/m2
09:24 70.2 °F 68.9 °F 30.22 in Calm     96% 0 in meteobridge W/m2
09:29 70.3 °F 69.1 °F 30.22 in Calm     96% 0 in meteobridge W/m2
09:34 70.9 °F 69.4 °F 30.22 in Calm     95% 0 in meteobridge W/m2
09:39 71.2 °F 69.8 °F 30.22 in Calm     95% 0 in meteobridge W/m2
09:44 71.4 °F 70 °F 30.22 in Calm     95% 0 in meteobridge W/m2
09:49 72 °F 70.5 °F 30.22 in Calm     95% 0 in meteobridge W/m2
09:54 72.1 °F 70.7 °F 30.22 in Calm     95% 0 in meteobridge W/m2
09:59 72.5 °F 71.1 °F 30.22 in Calm     95% 0 in meteobridge W/m2
10:04 72.9 °F 71.1 °F 30.22 in Calm     94% 0 in meteobridge W/m2
10:09 73.2 °F 71.4 °F 30.22 in Calm     94% 0 in meteobridge W/m2
10:14 73.8 °F 72 °F 30.22 in Calm     94% 0 in meteobridge W/m2
10:19 73.9 °F 72.1 °F 30.22 in Calm     94% 0 in meteobridge W/m2
10:24 74.5 °F 72.7 °F 30.22 in Calm     94% 0 in meteobridge W/m2
10:29 74.8 °F 72.7 °F 30.22 in Calm     93% 0 in meteobridge W/m2
10:34 75 °F 72.1 °F 30.22 in Calm     91% 0 in meteobridge W/m2
10:39 75.4 °F 72.3 °F 30.22 in Calm     90% 0 in meteobridge W/m2
10:44 75.9 °F 73 °F 30.22 in Calm     91% 0 in meteobridge W/m2
10:49 76.5 °F 73 °F 30.22 in Calm   1 mph 89% 0 in meteobridge W/m2
10:54 76.8 °F 72.7 °F 30.22 in Calm     87% 0 in meteobridge W/m2
10:59 77.4 °F 72.9 °F 30.22 in Calm   1 mph 86% 0 in meteobridge W/m2
11:04 77.7 °F 72.5 °F 30.22 in Calm   1 mph 84% 0 in meteobridge W/m2
11:09 78.4 °F 72.9 °F 30.21 in Calm     83% 0 in meteobridge W/m2
11:14 79.2 °F 73.2 °F 30.21 in Calm     82% 0 in meteobridge W/m2
11:19 79.9 °F 72.9 °F 30.21 in Calm     79% 0 in meteobridge W/m2
11:24 80.2 °F 72.3 °F 30.21 in Calm     77% 0 in meteobridge W/m2
11:29 80.8 °F 73.6 °F 30.21 in Calm     79% 0 in meteobridge W/m2
11:34 80.8 °F 73.6 °F 30.21 in Calm     79% 0 in meteobridge W/m2
11:39 80.8 °F 74.5 °F 30.20 in Calm     81% 0 in meteobridge W/m2
11:44 80.2 °F 74.3 °F 30.20 in Calm     82% 0 in meteobridge W/m2
11:49 80.2 °F 74.7 °F 30.20 in Calm     83% 0 in meteobridge W/m2
11:54 80.1 °F 74.5 °F 30.20 in Calm     83% 0 in meteobridge W/m2
11:59 79.9 °F 72.3 °F 30.20 in Calm     78% 0 in meteobridge W/m2
12:04 80.2 °F 72.3 °F 30.20 in Calm     77% 0 in meteobridge W/m2
12:09 81 °F 72.3 °F 30.19 in Calm     75% 0 in meteobridge W/m2
12:14 81.7 °F 74.1 °F 30.20 in Calm     78% 0 in meteobridge W/m2
12:19 81.9 °F 73.2 °F 30.19 in Calm     75% 0 in meteobridge W/m2
12:24 81.9 °F 73.6 °F 30.19 in Calm     76% 0 in meteobridge W/m2
12:29 81.3 °F 73 °F 30.19 in Calm     76% 0 in meteobridge W/m2
12:34 81.3 °F 73 °F 30.19 in Calm     76% 0 in meteobridge W/m2
12:39 81.7 °F 72.5 °F 30.19 in Calm     74% 0 in meteobridge W/m2
12:44 82 °F 73.4 °F 30.18 in Calm   1 mph 75% 0 in meteobridge W/m2
12:49 82.8 °F 72.3 °F 30.18 in Calm     71% 0 in meteobridge W/m2
12:54 83.1 °F 72.3 °F 30.19 in Calm   3 mph 70% 0 in meteobridge W/m2
12:59 83.7 °F 73.2 °F 30.18 in Calm     71% 0 in meteobridge W/m2
13:04 84 °F 72.3 °F 30.18 in Calm   1 mph 68% 0 in meteobridge W/m2
13:09 84.2 °F 72.5 °F 30.18 in Calm     68% 0 in meteobridge W/m2
13:14 84.4 °F 73.6 °F 30.18 in Calm     70% 0 in meteobridge W/m2
13:19 84 °F 72.7 °F 30.18 in Calm     69% 0 in meteobridge W/m2
13:24 83.8 °F 73 °F 30.18 in Calm     70% 0 in meteobridge W/m2
13:29 83.7 °F 73.2 °F 30.18 in Calm     71% 0 in meteobridge W/m2
13:34 83.5 °F 73.6 °F 30.18 in Calm     72% 0 in meteobridge W/m2
13:39 83.1 °F 73.9 °F 30.18 in Calm     74% 0 in meteobridge W/m2
13:44 82.9 °F 74.7 °F 30.17 in Calm     76% 0 in meteobridge W/m2
13:49 82.9 °F 74.7 °F 30.17 in Calm     76% 0 in meteobridge W/m2
13:54 82.9 °F 72.5 °F 30.17 in Calm     71% 0 in meteobridge W/m2
13:59 83.5 °F 73.9 °F 30.18 in Calm   1 mph 73% 0 in meteobridge W/m2
14:04 83.5 °F 73.9 °F 30.17 in Calm     73% 0 in meteobridge W/m2
14:09 83.7 °F 74.5 °F 30.18 in Calm     74% 0 in meteobridge W/m2
14:14 83.5 °F 72.7 °F 30.18 in Calm     70% 0 in meteobridge W/m2
14:19 83.5 °F 75.6 °F 30.17 in Calm     77% 0 in meteobridge W/m2
14:24 83.1 °F 75.6 °F 30.17 in Calm     78% 0 in meteobridge W/m2
14:29 82.9 °F 74.1 °F 30.18 in Calm     75% 0 in meteobridge W/m2
14:34 82.9 °F 74.7 °F 30.17 in Calm   2 mph 76% 0 in meteobridge W/m2
14:39 83.1 °F 75.6 °F 30.17 in Calm   3 mph 78% 0 in meteobridge W/m2
14:44 82.9 °F 74.1 °F 30.17 in Calm     75% 0 in meteobridge W/m2
14:49 82.8 °F 74.5 °F 30.17 in Calm     76% 0 in meteobridge W/m2
14:54 82.4 °F 74.1 °F 30.17 in Calm     76% 0 in meteobridge W/m2
14:59 82 °F 73.4 °F 30.17 in Calm     75% 0 in meteobridge W/m2
15:04 81.9 °F 74.3 °F 30.17 in Calm     78% 0 in meteobridge W/m2
15:09 81.9 °F 74.7 °F 30.16 in Calm     79% 0 in meteobridge W/m2
15:14 82.2 °F 73.6 °F 30.16 in Calm   1 mph 75% 0 in meteobridge W/m2
15:19 82.9 °F 73 °F 30.16 in NW 0.9 mph 1 mph 72% 0 in meteobridge W/m2
15:24 83.7 °F 73.2 °F 30.15 in Calm   1 mph 71% 0 in meteobridge W/m2
15:29 84.4 °F 72.7 °F 30.15 in Calm   4 mph 68% 0 in meteobridge W/m2
15:34 84.7 °F 73.4 °F 30.15 in Calm   3 mph 69% 0 in meteobridge W/m2
15:39 85.1 °F 75.9 °F 30.15 in Calm   2 mph 74% 0 in meteobridge W/m2
15:44 84.9 °F 74.5 °F 30.15 in Calm   1 mph 71% 0 in meteobridge W/m2
15:49 84.7 °F 74.7 °F 30.14 in Calm   4 mph 72% 0 in meteobridge W/m2
15:54 84.6 °F 72.9 °F 30.14 in Calm   3 mph 68% 0 in meteobridge W/m2
15:59 84.7 °F 72.5 °F 30.14 in Calm   4 mph 67% 0 in meteobridge W/m2
16:04 85.1 °F 72.9 °F 30.14 in Calm   1 mph 67% 0 in meteobridge W/m2
16:09 85.5 °F 74.1 °F 30.14 in Calm     69% 0 in meteobridge W/m2
16:14 85.6 °F 73.9 °F 30.14 in Calm   1 mph 68% 0 in meteobridge W/m2
16:19 85.8 °F 74.8 °F 30.13 in Calm     70% 0 in meteobridge W/m2
16:24 85.5 °F 73.2 °F 30.13 in Calm     67% 0 in meteobridge W/m2
16:29 85.1 °F 74.7 °F 30.13 in Calm     71% 0 in meteobridge W/m2
16:34 84.6 °F 74.5 °F 30.13 in Calm     72% 0 in meteobridge W/m2
16:39 83.8 °F 74.7 °F 30.13 in Calm     74% 0 in meteobridge W/m2
16:44 83.5 °F 75.6 °F 30.12 in Calm     77% 0 in meteobridge W/m2
16:49 83.1 °F 75.2 °F 30.12 in Calm     77% 0 in meteobridge W/m2
16:54 82.9 °F 75.4 °F 30.12 in Calm     78% 0 in meteobridge W/m2
16:59 82.9 °F 75.7 °F 30.12 in Calm     79% 0 in meteobridge W/m2
17:04 82.8 °F 74.8 °F 30.12 in Calm     77% 0 in meteobridge W/m2
17:09 82.8 °F 75.6 °F 30.12 in Calm     79% 0 in meteobridge W/m2
17:14 82.8 °F 75.6 °F 30.11 in NNE 0.9 mph 1 mph 79% 0 in meteobridge W/m2
17:19 82.9 °F 72.5 °F 30.11 in Calm     71% 0 in meteobridge W/m2
17:24 83.3 °F 74.1 °F 30.11 in Calm   1 mph 74% 0 in meteobridge W/m2
17:29 83.5 °F 72.7 °F 30.11 in Calm     70% 0 in meteobridge W/m2
17:34 83.7 °F 74.8 °F 30.11 in Calm     75% 0 in meteobridge W/m2
17:39 83.5 °F 75 °F 30.11 in Calm     76% 0 in meteobridge W/m2
17:44 83.5 °F 76.3 °F 30.11 in Calm     79% 0 in meteobridge W/m2
17:49 83.1 °F 76.6 °F 30.11 in Calm     81% 0 in meteobridge W/m2
17:54 82.8 °F 76.6 °F 30.11 in Calm     82% 0 in meteobridge W/m2
17:59 82.4 °F 76.6 °F 30.11 in Calm     83% 0 in meteobridge W/m2
18:04 82 °F 76.3 °F 30.11 in Calm     83% 0 in meteobridge W/m2
18:09 81.7 °F 75.2 °F 30.11 in Calm     81% 0 in meteobridge W/m2
18:14 81.5 °F 75 °F 30.10 in Calm     81% 0 in meteobridge W/m2
18:19 81.5 °F 75.9 °F 30.11 in Calm     83% 0 in meteobridge W/m2
18:24 81.3 °F 75.7 °F 30.11 in Calm     83% 0 in meteobridge W/m2
18:29 81.1 °F 75.9 °F 30.11 in Calm     84% 0 in meteobridge W/m2
18:34 81.1 °F 75.6 °F 30.11 in Calm     83% 0 in meteobridge W/m2
18:39 81.1 °F 75.9 °F 30.11 in Calm     84% 0 in meteobridge W/m2
18:44 81 °F 76.1 °F 30.11 in Calm     85% 0 in meteobridge W/m2
18:49 81 °F 76.1 °F 30.11 in Calm     85% 0 in meteobridge W/m2
18:54 80.8 °F 75.9 °F 30.11 in Calm     85% 0 in meteobridge W/m2
18:59 81 °F 76.1 °F 30.11 in Calm     85% 0 in meteobridge W/m2
19:04 81 °F 76.1 °F 30.11 in Calm     85% 0 in meteobridge W/m2
19:09 81 °F 76.1 °F 30.11 in Calm     85% 0 in meteobridge W/m2
19:14 81 °F 76.1 °F 30.11 in Calm     85% 0 in meteobridge W/m2
19:19 81 °F 75.7 °F 30.10 in Calm     84% 0 in meteobridge W/m2
19:24 81 °F 75.7 °F 30.10 in Calm     84% 0 in meteobridge W/m2
19:29 81 °F 76.1 °F 30.10 in Calm     85% 0 in meteobridge W/m2
19:34 80.8 °F 75.9 °F 30.10 in Calm     85% 0 in meteobridge W/m2
19:39 80.4 °F 75.2 °F 30.11 in Calm     84% 0 in meteobridge W/m2
19:44 80.2 °F 75.7 °F 30.11 in Calm     86% 0 in meteobridge W/m2
19:49 80.1 °F 75.2 °F 30.11 in Calm     85% 0 in meteobridge W/m2
19:54 79.9 °F 75 °F 30.11 in Calm     85% 0 in meteobridge W/m2
19:59 79.5 °F 75 °F 30.11 in Calm     86% 0 in meteobridge W/m2
20:04 79.2 °F 75 °F 30.12 in Calm     87% 0 in meteobridge W/m2
20:09 78.6 °F 74.8 °F 30.12 in Calm     88% 0 in meteobridge W/m2
20:14 78.4 °F 74.7 °F 30.12 in Calm     88% 0 in meteobridge W/m2
20:19 78.3 °F 74.5 °F 30.12 in Calm     88% 0 in meteobridge W/m2
20:24 78.1 °F 74.3 °F 30.12 in Calm     88% 0 in meteobridge W/m2
20:29 77.7 °F 74.3 °F 30.12 in Calm     89% 0 in meteobridge W/m2
20:34 77.5 °F 74.1 °F 30.12 in Calm     89% 0 in meteobridge W/m2
20:39 77.4 °F 73.9 °F 30.12 in Calm     89% 0 in meteobridge W/m2
20:44 77 °F 73.6 °F 30.12 in Calm     89% 0 in meteobridge W/m2
20:49 76.6 °F 73.4 °F 30.13 in Calm     90% 0 in meteobridge W/m2
20:54 76.5 °F 73.2 °F 30.13 in Calm     90% 0 in meteobridge W/m2
20:59 76.3 °F 73 °F 30.13 in Calm     90% 0 in meteobridge W/m2
21:04 75.9 °F 72.9 °F 30.13 in Calm     90% 0 in meteobridge W/m2
21:09 75.7 °F 72.9 °F 30.13 in Calm     91% 0 in meteobridge W/m2
21:14 75.6 °F 72.7 °F 30.13 in Calm     91% 0 in meteobridge W/m2
21:19 75.2 °F 72.3 °F 30.14 in Calm     91% 0 in meteobridge W/m2
21:24 75 °F 72.1 °F 30.14 in Calm     91% 0 in meteobridge W/m2
21:29 74.8 °F 72 °F 30.14 in Calm     91% 0 in meteobridge W/m2
21:34 74.7 °F 72.1 °F 30.14 in Calm     92% 0 in meteobridge W/m2
21:39 74.5 °F 72 °F 30.14 in Calm     92% 0 in meteobridge W/m2
21:44 74.5 °F 72 °F 30.14 in Calm     92% 0 in meteobridge W/m2
21:49 74.3 °F 71.8 °F 30.14 in Calm     92% 0 in meteobridge W/m2
21:54 74.1 °F 71.6 °F 30.14 in Calm     92% 0 in meteobridge W/m2
21:59 73.9 °F 71.4 °F 30.14 in Calm     92% 0 in meteobridge W/m2
22:04 73.8 °F 71.2 °F 30.14 in Calm     92% 0 in meteobridge W/m2
22:09 73.8 °F 71.6 °F 30.15 in Calm     93% 0 in meteobridge W/m2
22:14 73.6 °F 71.4 °F 30.15 in Calm     93% 0 in meteobridge W/m2
22:19 73.6 °F 71.4 °F 30.15 in Calm     93% 0 in meteobridge W/m2
22:24 73.2 °F 70.7 °F 30.15 in Calm     92% 0 in meteobridge W/m2
22:29 73.2 °F 71.1 °F 30.15 in Calm     93% 0 in meteobridge W/m2
22:34 73 °F 70.9 °F 30.16 in Calm     93% 0 in meteobridge W/m2
22:39 73 °F 70.9 °F 30.16 in Calm     93% 0 in meteobridge W/m2
22:44 72.9 °F 70.7 °F 30.16 in Calm     93% 0 in meteobridge W/m2
22:49 72.9 °F 70.7 °F 30.16 in Calm     93% 0 in meteobridge W/m2
22:54 72.7 °F 70.5 °F 30.16 in Calm     93% 0 in meteobridge W/m2
22:59 72.5 °F 70.3 °F 30.16 in Calm     93% 0 in meteobridge W/m2
23:04 72.3 °F 70.2 °F 30.16 in Calm     93% 0 in meteobridge W/m2
23:09 72.3 °F 70.2 °F 30.16 in Calm     93% 0 in meteobridge W/m2
23:14 72.1 °F 70 °F 30.16 in Calm     93% 0 in meteobridge W/m2
23:19 72.1 °F 70.3 °F 30.16 in Calm     94% 0 in meteobridge W/m2
23:24 72.1 °F 70.3 °F 30.16 in Calm     94% 0 in meteobridge W/m2
23:29 72 °F 70.2 °F 30.16 in Calm     94% 0 in meteobridge W/m2
23:34 72 °F 70.2 °F 30.16 in Calm     94% 0 in meteobridge W/m2
23:39 72 °F 70.2 °F 30.16 in Calm     94% 0 in meteobridge W/m2
23:44 71.8 °F 70 °F 30.16 in Calm     94% 0 in meteobridge W/m2
23:49 71.8 °F 70 °F 30.16 in Calm     94% 0 in meteobridge W/m2
23:54 71.6 °F 69.8 °F 30.16 in Calm     94% 0 in meteobridge W/m2
23:59 71.6 °F 69.8 °F 30.16 in Calm     94% 0 in meteobridge W/m2
EllijayWeather
Compliments of Weather Underground - 2.25 mb